KWDG/WDG METAR and TAF weather

Enter ICAO airport designator
Station Type Date Time Source
KWDG METAR 2019/02/23 00:50 UTC NOAA

KWDG 230050Z 09005KT 3SM BR OVC009 07/07 A2990


Station Type Date Time Source
KWDG Decoded METAR 2019/02/23 00:50 UTC NOAA

Enid, Enid Woodring Regional Airport, OK, United States (KWDG) 36-22-45N 097-47-28W
Feb 22, 2019 - 07:50 PM EST / 2019.02.23 0050 UTC
Wind: from the E (090 degrees) at 6 MPH (5 KT):0
Visibility: 3 mile(s):0
Sky conditions: overcast
Weather: mist
Temperature: 44 F (7 C)
Dew Point: 44 F (7 C)
Relative Humidity: 100%
Pressure (altimeter): 29.9 in. Hg (1012 hPa)
ob: KWDG 230050Z 09005KT 3SM BR OVC009 07/07 A2990
cycle: 1

Station Type Date Time Source
KWDG TAF UTC NOAA

Error!


Example: see airport list